sensor_id;sensor_type;location;lat;lon;timestamp;pressure;altitude;pressure_sealevel;temperature;humidity
27958;BME280;15295;42.658;23.374;2023-03-13T00:04:02;94798.44;;;7.97;35.98
27958;BME280;15295;42.658;23.374;2023-03-13T00:06:36;94818.72;;;8.06;36.11
27958;BME280;15295;42.658;23.374;2023-03-13T00:09:05;94768.75;;;7.81;36.12
27958;BME280;15295;42.658;23.374;2023-03-13T00:11:32;94794.09;;;7.92;35.94
27958;BME280;15295;42.658;23.374;2023-03-13T00:14:00;94766.31;;;7.69;36.03
27958;BME280;15295;42.658;23.374;2023-03-13T00:16:27;94802.25;;;7.89;36.09
27958;BME280;15295;42.658;23.374;2023-03-13T00:18:53;94800.94;;;7.75;36.34
27958;BME280;15295;42.658;23.374;2023-03-13T00:21:21;94806.00;;;7.77;36.33
27958;BME280;15295;42.658;23.374;2023-03-13T00:23:48;94797.34;;;7.64;36.48
27958;BME280;15295;42.658;23.374;2023-03-13T00:26:16;94800.06;;;7.64;36.63
27958;BME280;15295;42.658;23.374;2023-03-13T00:28:43;94795.75;;;7.63;36.41
27958;BME280;15295;42.658;23.374;2023-03-13T00:31:12;94814.47;;;7.68;36.45
27958;BME280;15295;42.658;23.374;2023-03-13T00:33:41;94814.16;;;7.73;36.30
27958;BME280;15295;42.658;23.374;2023-03-13T00:36:29;94802.84;;;7.71;36.25
27958;BME280;15295;42.658;23.374;2023-03-13T00:38:57;94822.34;;;7.77;36.47
27958;BME280;15295;42.658;23.374;2023-03-13T00:41:26;94792.28;;;7.63;36.30
27958;BME280;15295;42.658;23.374;2023-03-13T00:43:54;94832.59;;;7.91;36.22
27958;BME280;15295;42.658;23.374;2023-03-13T00:46:23;94833.28;;;7.84;36.35
27958;BME280;15295;42.658;23.374;2023-03-13T00:48:50;94790.25;;;7.56;36.30
27958;BME280;15295;42.658;23.374;2023-03-13T00:51:17;94798.84;;;7.58;36.33
27958;BME280;15295;42.658;23.374;2023-03-13T00:53:45;94822.25;;;7.70;36.29
27958;BME280;15295;42.658;23.374;2023-03-13T00:56:14;94792.91;;;7.49;36.41
27958;BME280;15295;42.658;23.374;2023-03-13T00:58:43;94776.09;;;7.40;36.49
27958;BME280;15295;42.658;23.374;2023-03-13T01:03:47;94791.19;;;7.38;36.50
27958;BME280;15295;42.658;23.374;2023-03-13T01:06:14;94795.88;;;7.37;36.55
27958;BME280;15295;42.658;23.374;2023-03-13T01:08:40;94785.75;;;7.34;36.63
27958;BME280;15295;42.658;23.374;2023-03-13T01:11:21;94826.34;;;7.53;36.49
27958;BME280;15295;42.658;23.374;2023-03-13T01:13:47;94829.84;;;7.54;36.66
27958;BME280;15295;42.658;23.374;2023-03-13T01:16:19;94828.28;;;7.53;36.60
27958;BME280;15295;42.658;23.374;2023-03-13T01:18:48;94791.59;;;7.36;36.69
27958;BME280;15295;42.658;23.374;2023-03-13T01:21:16;94808.91;;;7.54;36.51
27958;BME280;15295;42.658;23.374;2023-03-13T01:23:52;94809.25;;;7.53;36.63
27958;BME280;15295;42.658;23.374;2023-03-13T01:26:29;94814.03;;;7.63;36.66
27958;BME280;15295;42.658;23.374;2023-03-13T01:28:55;94784.31;;;7.44;36.61
27958;BME280;15295;42.658;23.374;2023-03-13T01:31:33;94802.69;;;7.57;36.58
27958;BME280;15295;42.658;23.374;2023-03-13T01:34:02;94796.44;;;7.53;36.35
27958;BME280;15295;42.658;23.374;2023-03-13T01:36:28;94798.03;;;7.58;36.45
27958;BME280;15295;42.658;23.374;2023-03-13T01:38:56;94774.94;;;7.41;36.62
27958;BME280;15295;42.658;23.374;2023-03-13T01:41:23;94791.28;;;7.45;36.46
27958;BME280;15295;42.658;23.374;2023-03-13T01:43:49;94812.84;;;7.60;36.43
27958;BME280;15295;42.658;23.374;2023-03-13T01:46:17;94815.25;;;7.65;36.53
27958;BME280;15295;42.658;23.374;2023-03-13T01:48:51;94837.56;;;7.85;36.49
27958;BME280;15295;42.658;23.374;2023-03-13T01:51:34;94840.69;;;7.87;36.31
27958;BME280;15295;42.658;23.374;2023-03-13T01:54:27;94817.59;;;7.70;36.23
27958;BME280;15295;42.658;23.374;2023-03-13T01:56:59;94819.50;;;7.66;36.22
27958;BME280;15295;42.658;23.374;2023-03-13T01:59:40;94849.22;;;7.82;36.40
27958;BME280;15295;42.658;23.374;2023-03-13T02:02:06;94807.81;;;7.62;36.49
27958;BME280;15295;42.658;23.374;2023-03-13T02:04:38;94845.72;;;7.85;36.41
27958;BME280;15295;42.658;23.374;2023-03-13T02:07:10;94806.63;;;7.63;36.43
27958;BME280;15295;42.658;23.374;2023-03-13T02:09:39;94803.47;;;7.54;36.24
27958;BME280;15295;42.658;23.374;2023-03-13T02:12:12;94842.56;;;7.79;36.48
27958;BME280;15295;42.658;23.374;2023-03-13T02:14:41;94841.47;;;7.84;36.38
27958;BME280;15295;42.658;23.374;2023-03-13T02:17:12;94812.06;;;7.63;36.18
27958;BME280;15295;42.658;23.374;2023-03-13T02:19:49;94841.78;;;7.79;36.70
27958;BME280;15295;42.658;23.374;2023-03-13T02:27:34;94802.56;;;7.47;37.08
27958;BME280;15295;42.658;23.374;2023-03-13T02:30:04;94863.91;;;7.74;37.28
27958;BME280;15295;42.658;23.374;2023-03-13T02:32:31;94857.16;;;7.61;37.49
27958;BME280;15295;42.658;23.374;2023-03-13T02:35:19;94830.53;;;7.44;37.44
27958;BME280;15295;42.658;23.374;2023-03-13T02:38:06;94828.00;;;7.28;37.46
27958;BME280;15295;42.658;23.374;2023-03-13T02:40:37;94878.69;;;7.43;37.25
27958;BME280;15295;42.658;23.374;2023-03-13T02:43:09;94887.97;;;7.42;37.55
27958;BME280;15295;42.658;23.374;2023-03-13T02:45:36;94876.94;;;7.28;37.81
27958;BME280;15295;42.658;23.374;2023-03-13T02:48:02;94866.59;;;7.11;37.74
27958;BME280;15295;42.658;23.374;2023-03-13T02:50:28;94841.03;;;6.86;37.91
27958;BME280;15295;42.658;23.374;2023-03-13T02:53:04;94895.41;;;7.16;38.19
27958;BME280;15295;42.658;23.374;2023-03-13T02:55:38;94877.56;;;6.88;38.29
27958;BME280;15295;42.658;23.374;2023-03-13T02:58:07;94899.06;;;7.00;38.14
27958;BME280;15295;42.658;23.374;2023-03-13T03:00:33;94864.53;;;6.75;38.17
27958;BME280;15295;42.658;23.374;2023-03-13T03:02:59;94866.00;;;6.69;38.64
27958;BME280;15295;42.658;23.374;2023-03-13T03:05:25;94884.50;;;6.86;38.96
27958;BME280;15295;42.658;23.374;2023-03-13T03:07:52;94904.50;;;7.00;39.02
27958;BME280;15295;42.658;23.374;2023-03-13T03:10:18;94866.88;;;6.76;39.23
27958;BME280;15295;42.658;23.374;2023-03-13T03:12:45;94854.25;;;6.61;39.44
27958;BME280;15295;42.658;23.374;2023-03-13T03:15:11;94858.03;;;6.57;40.09
27958;BME280;15295;42.658;23.374;2023-03-13T03:17:37;94883.44;;;6.68;40.64
27958;BME280;15295;42.658;23.374;2023-03-13T03:20:03;94859.22;;;6.56;40.54
27958;BME280;15295;42.658;23.374;2023-03-13T03:22:33;94887.31;;;6.67;40.64
27958;BME280;15295;42.658;23.374;2023-03-13T03:24:58;94882.19;;;6.62;40.57
27958;BME280;15295;42.658;23.374;2023-03-13T03:27:24;94923.25;;;6.83;40.49
27958;BME280;15295;42.658;23.374;2023-03-13T03:29:49;94930.25;;;6.84;40.74
27958;BME280;15295;42.658;23.374;2023-03-13T03:32:16;94893.34;;;6.57;40.81
27958;BME280;15295;42.658;23.374;2023-03-13T03:34:41;94932.31;;;6.68;41.08
27958;BME280;15295;42.658;23.374;2023-03-13T03:37:10;94892.88;;;6.51;41.13
27958;BME280;15295;42.658;23.374;2023-03-13T03:39:58;94931.06;;;6.62;41.43
27958;BME280;15295;42.658;23.374;2023-03-13T03:42:25;94873.16;;;6.32;41.21
27958;BME280;15295;42.658;23.374;2023-03-13T03:44:51;94911.84;;;6.48;41.36
27958;BME280;15295;42.658;23.374;2023-03-13T03:47:16;94943.84;;;6.61;41.65
27958;BME280;15295;42.658;23.374;2023-03-13T03:49:44;94920.66;;;6.41;41.74
27958;BME280;15295;42.658;23.374;2023-03-13T03:52:10;94946.50;;;6.58;41.52
27958;BME280;15295;42.658;23.374;2023-03-13T03:54:36;94993.41;;;6.77;41.63
27958;BME280;15295;42.658;23.374;2023-03-13T03:57:09;94929.06;;;6.36;41.84
27958;BME280;15295;42.658;23.374;2023-03-13T03:59:35;94960.69;;;6.48;41.92
27958;BME280;15295;42.658;23.374;2023-03-13T04:02:09;94976.81;;;6.60;41.87
27958;BME280;15295;42.658;23.374;2023-03-13T04:04:51;94970.53;;;6.56;42.02
27958;BME280;15295;42.658;23.374;2023-03-13T04:07:16;94961.00;;;6.43;41.93
27958;BME280;15295;42.658;23.374;2023-03-13T04:09:51;94969.97;;;6.47;42.09
27958;BME280;15295;42.658;23.374;2023-03-13T04:12:18;94958.81;;;6.29;42.26
27958;BME280;15295;42.658;23.374;2023-03-13T04:14:45;94942.63;;;6.13;42.24
27958;BME280;15295;42.658;23.374;2023-03-13T04:17:12;94983.06;;;6.41;42.02
27958;BME280;15295;42.658;23.374;2023-03-13T04:19:38;95017.78;;;6.51;42.13
27958;BME280;15295;42.658;23.374;2023-03-13T04:22:06;95009.16;;;6.46;42.03
27958;BME280;15295;42.658;23.374;2023-03-13T04:24:34;94976.09;;;6.21;42.25
27958;BME280;15295;42.658;23.374;2023-03-13T04:26:59;94993.88;;;6.18;42.23
27958;BME280;15295;42.658;23.374;2023-03-13T04:29:26;95016.59;;;6.30;42.16
27958;BME280;15295;42.658;23.374;2023-03-13T04:31:53;95012.66;;;6.27;42.31
27958;BME280;15295;42.658;23.374;2023-03-13T04:34:18;94985.91;;;6.06;42.29
27958;BME280;15295;42.658;23.374;2023-03-13T04:36:46;95018.63;;;6.13;42.44
27958;BME280;15295;42.658;23.374;2023-03-13T04:39:17;95015.75;;;6.06;42.30
27958;BME280;15295;42.658;23.374;2023-03-13T04:41:45;95023.47;;;6.04;42.72
27958;BME280;15295;42.658;23.374;2023-03-13T04:44:12;95026.31;;;5.92;42.68
27958;BME280;15295;42.658;23.374;2023-03-13T04:49:54;94981.72;;;5.55;42.63
27958;BME280;15295;42.658;23.374;2023-03-13T04:52:19;94998.81;;;5.75;42.72
27958;BME280;15295;42.658;23.374;2023-03-13T04:54:45;95020.44;;;5.90;42.72
27958;BME280;15295;42.658;23.374;2023-03-13T04:57:21;95019.81;;;5.97;42.50
27958;BME280;15295;42.658;23.374;2023-03-13T04:59:49;95017.81;;;5.94;42.48
27958;BME280;15295;42.658;23.374;2023-03-13T05:02:15;95060.59;;;6.19;42.49
27958;BME280;15295;42.658;23.374;2023-03-13T05:04:40;95005.75;;;5.91;42.19
27958;BME280;15295;42.658;23.374;2023-03-13T05:07:07;95066.66;;;6.32;42.01
27958;BME280;15295;42.658;23.374;2023-03-13T05:09:32;95043.59;;;6.22;42.34
27958;BME280;15295;42.658;23.374;2023-03-13T05:12:02;95055.06;;;6.35;42.04
27958;BME280;15295;42.658;23.374;2023-03-13T05:14:29;95016.13;;;6.05;42.09
27958;BME280;15295;42.658;23.374;2023-03-13T05:16:54;94992.63;;;5.93;42.08
27958;BME280;15295;42.658;23.374;2023-03-13T05:19:21;95069.16;;;6.41;42.30
27958;BME280;15295;42.658;23.374;2023-03-13T05:21:50;95037.50;;;6.29;42.15
27958;BME280;15295;42.658;23.374;2023-03-13T05:24:17;95034.09;;;6.32;41.90
27958;BME280;15295;42.658;23.374;2023-03-13T05:26:58;95085.75;;;6.77;41.67
27958;BME280;15295;42.658;23.374;2023-03-13T05:29:24;95056.78;;;6.62;41.62
27958;BME280;15295;42.658;23.374;2023-03-13T05:31:52;95079.31;;;6.85;41.33
27958;BME280;15295;42.658;23.374;2023-03-13T05:34:18;95093.50;;;6.98;41.15
27958;BME280;15295;42.658;23.374;2023-03-13T05:36:44;95089.31;;;7.04;40.90
27958;BME280;15295;42.658;23.374;2023-03-13T05:39:16;95091.34;;;7.07;40.88
27958;BME280;15295;42.658;23.374;2023-03-13T05:41:41;95021.75;;;6.57;40.78
27958;BME280;15295;42.658;23.374;2023-03-13T05:44:10;95100.28;;;7.08;40.68
27958;BME280;15295;42.658;23.374;2023-03-13T05:46:35;95093.13;;;6.99;40.57
27958;BME280;15295;42.658;23.374;2023-03-13T05:49:01;95091.63;;;7.02;40.71
27958;BME280;15295;42.658;23.374;2023-03-13T05:51:26;95106.56;;;7.12;40.77
27958;BME280;15295;42.658;23.374;2023-03-13T05:53:52;95062.34;;;6.92;40.66
27958;BME280;15295;42.658;23.374;2023-03-13T05:56:17;95109.97;;;7.09;40.82
27958;BME280;15295;42.658;23.374;2023-03-13T05:58:44;95070.22;;;6.78;40.84
27958;BME280;15295;42.658;23.374;2023-03-13T06:01:12;95078.69;;;6.73;40.77
27958;BME280;15295;42.658;23.374;2023-03-13T06:03:37;95073.47;;;6.64;40.71
27958;BME280;15295;42.658;23.374;2023-03-13T06:06:03;95107.53;;;6.81;40.87
27958;BME280;15295;42.658;23.374;2023-03-13T06:08:29;95100.56;;;6.80;40.89
27958;BME280;15295;42.658;23.374;2023-03-13T06:11:01;95078.41;;;6.59;40.92
27958;BME280;15295;42.658;23.374;2023-03-13T06:13:27;95127.53;;;6.92;40.71
27958;BME280;15295;42.658;23.374;2023-03-13T06:15:54;95102.34;;;6.72;40.61
27958;BME280;15295;42.658;23.374;2023-03-13T06:18:20;95101.44;;;6.65;40.73
27958;BME280;15295;42.658;23.374;2023-03-13T06:20:48;95125.34;;;6.78;40.85
27958;BME280;15295;42.658;23.374;2023-03-13T06:23:14;95100.00;;;6.71;40.77
27958;BME280;15295;42.658;23.374;2023-03-13T06:25:39;95104.03;;;6.80;40.89
27958;BME280;15295;42.658;23.374;2023-03-13T06:28:07;95093.53;;;6.79;40.63
27958;BME280;15295;42.658;23.374;2023-03-13T06:30:33;95052.69;;;6.53;40.58
27958;BME280;15295;42.658;23.374;2023-03-13T06:32:58;95131.66;;;7.05;40.62
27958;BME280;15295;42.658;23.374;2023-03-13T06:35:24;95045.97;;;6.66;40.65
27958;BME280;15295;42.658;23.374;2023-03-13T06:37:50;95044.16;;;6.96;40.25
27958;BME280;15295;42.658;23.374;2023-03-13T06:40:17;95114.31;;;7.58;39.67
27958;BME280;15295;42.658;23.374;2023-03-13T06:42:42;95101.50;;;7.85;39.59
27958;BME280;15295;42.658;23.374;2023-03-13T06:45:08;95105.78;;;8.12;39.27
27958;BME280;15295;42.658;23.374;2023-03-13T06:47:34;95094.31;;;8.26;38.02
27958;BME280;15295;42.658;23.374;2023-03-13T06:49:59;95063.66;;;8.32;37.68
27958;BME280;15295;42.658;23.374;2023-03-13T06:52:25;95089.00;;;8.70;36.93
27958;BME280;15295;42.658;23.374;2023-03-13T06:54:51;95085.41;;;8.95;36.95
27958;BME280;15295;42.658;23.374;2023-03-13T06:57:23;95086.09;;;9.29;36.73
27958;BME280;15295;42.658;23.374;2023-03-13T06:59:50;95109.84;;;9.72;35.57
27958;BME280;15295;42.658;23.374;2023-03-13T07:02:17;95110.00;;;9.97;35.37
27958;BME280;15295;42.658;23.374;2023-03-13T07:04:44;95073.03;;;10.10;35.13
27958;BME280;15295;42.658;23.374;2023-03-13T07:07:15;95083.78;;;10.50;35.28
27958;BME280;15295;42.658;23.374;2023-03-13T07:09:41;95101.84;;;10.72;34.96
27958;BME280;15295;42.658;23.374;2023-03-13T07:12:06;95104.22;;;10.81;34.74
27958;BME280;15295;42.658;23.374;2023-03-13T07:14:32;95071.41;;;10.81;34.77
27958;BME280;15295;42.658;23.374;2023-03-13T07:16:58;95107.84;;;11.24;34.14
27958;BME280;15295;42.658;23.374;2023-03-13T07:19:27;95018.28;;;10.82;33.91
27958;BME280;15295;42.658;23.374;2023-03-13T07:21:53;95079.34;;;11.35;33.64
27958;BME280;15295;42.658;23.374;2023-03-13T07:24:18;95063.69;;;11.43;33.38
27958;BME280;15295;42.658;23.374;2023-03-13T07:26:44;95041.81;;;11.50;32.95
27958;BME280;15295;42.658;23.374;2023-03-13T07:29:12;95107.53;;;11.99;32.56
27958;BME280;15295;42.658;23.374;2023-03-13T07:31:38;95056.69;;;11.74;32.56
27958;BME280;15295;42.658;23.374;2023-03-13T07:34:04;95093.78;;;12.17;32.20
27958;BME280;15295;42.658;23.374;2023-03-13T07:36:30;95103.50;;;12.46;31.88
27958;BME280;15295;42.658;23.374;2023-03-13T07:38:55;95106.59;;;12.59;31.62
27958;BME280;15295;42.658;23.374;2023-03-13T07:41:21;95075.38;;;12.31;31.66
27958;BME280;15295;42.658;23.374;2023-03-13T07:43:47;95108.13;;;12.67;31.50
27958;BME280;15295;42.658;23.374;2023-03-13T07:46:16;95081.47;;;12.71;31.50
27958;BME280;15295;42.658;23.374;2023-03-13T07:48:46;95107.78;;;13.41;30.83
27958;BME280;15295;42.658;23.374;2023-03-13T07:51:14;95101.41;;;13.58;30.25
27958;BME280;15295;42.658;23.374;2023-03-13T07:53:41;95106.78;;;13.72;30.04
27958;BME280;15295;42.658;23.374;2023-03-13T07:56:19;95108.56;;;13.92;29.62
27958;BME280;15295;42.658;23.374;2023-03-13T07:58:46;95081.31;;;13.64;29.94
27958;BME280;15295;42.658;23.374;2023-03-13T08:01:23;95106.19;;;13.94;29.60
27958;BME280;15295;42.658;23.374;2023-03-13T08:03:50;95097.69;;;14.23;29.26
27958;BME280;15295;42.658;23.374;2023-03-13T08:06:21;95087.16;;;14.18;29.05
27958;BME280;15295;42.658;23.374;2023-03-13T08:08:55;95081.53;;;14.32;29.06
27958;BME280;15295;42.658;23.374;2023-03-13T08:11:45;95082.50;;;14.82;28.15
27958;BME280;15295;42.658;23.374;2023-03-13T08:14:14;95089.75;;;14.69;28.32
27958;BME280;15295;42.658;23.374;2023-03-13T08:16:46;95078.28;;;14.78;28.18
27958;BME280;15295;42.658;23.374;2023-03-13T08:21:46;95084.41;;;14.89;28.40
27958;BME280;15295;42.658;23.374;2023-03-13T08:24:12;95062.72;;;14.94;27.85
27958;BME280;15295;42.658;23.374;2023-03-13T08:26:39;95048.44;;;14.73;27.74
27958;BME280;15295;42.658;23.374;2023-03-13T08:29:13;95056.13;;;14.88;27.61
27958;BME280;15295;42.658;23.374;2023-03-13T08:31:50;95093.88;;;15.18;27.89
27958;BME280;15295;42.658;23.374;2023-03-13T08:34:18;95059.03;;;14.74;27.81
27958;BME280;15295;42.658;23.374;2023-03-13T08:36:45;95058.41;;;14.93;27.92
27958;BME280;15295;42.658;23.374;2023-03-13T08:39:18;95073.59;;;15.31;27.32
27958;BME280;15295;42.658;23.374;2023-03-13T08:41:47;95079.13;;;15.58;27.09
27958;BME280;15295;42.658;23.374;2023-03-13T08:44:15;95077.88;;;15.63;26.72
27958;BME280;15295;42.658;23.374;2023-03-13T08:46:44;95107.25;;;15.96;26.36
27958;BME280;15295;42.658;23.374;2023-03-13T08:49:12;95088.81;;;16.16;25.99
27958;BME280;15295;42.658;23.374;2023-03-13T08:51:59;95087.84;;;16.26;25.52
27958;BME280;15295;42.658;23.374;2023-03-13T08:54:25;95077.00;;;16.15;25.60
27958;BME280;15295;42.658;23.374;2023-03-13T08:56:52;95057.81;;;16.08;25.80
27958;BME280;15295;42.658;23.374;2023-03-13T08:59:26;95029.72;;;15.94;25.82
27958;BME280;15295;42.658;23.374;2023-03-13T09:01:53;95088.91;;;16.55;25.60
27958;BME280;15295;42.658;23.374;2023-03-13T09:04:19;95024.91;;;16.41;25.57
27958;BME280;15295;42.658;23.374;2023-03-13T09:06:47;95083.47;;;17.11;25.03
27958;BME280;15295;42.658;23.374;2023-03-13T09:09:14;95076.88;;;17.05;25.20
27958;BME280;15295;42.658;23.374;2023-03-13T09:11:42;95044.06;;;16.90;24.10
27958;BME280;15295;42.658;23.374;2023-03-13T09:14:09;95069.50;;;17.18;24.22
27958;BME280;15295;42.658;23.374;2023-03-13T09:16:50;95091.09;;;17.23;24.65
27958;BME280;15295;42.658;23.374;2023-03-13T09:19:18;95034.25;;;17.06;24.81
27958;BME280;15295;42.658;23.374;2023-03-13T09:22:04;95062.44;;;17.52;24.32
27958;BME280;15295;42.658;23.374;2023-03-13T09:24:35;95050.63;;;17.68;24.14
27958;BME280;15295;42.658;23.374;2023-03-13T09:27:02;95065.31;;;17.97;24.12
27958;BME280;15295;42.658;23.374;2023-03-13T09:29:29;95061.84;;;18.09;24.03
27958;BME280;15295;42.658;23.374;2023-03-13T09:32:08;94995.84;;;17.63;23.77
27958;BME280;15295;42.658;23.374;2023-03-13T09:34:34;95051.66;;;17.90;23.60
27958;BME280;15295;42.658;23.374;2023-03-13T09:37:01;95059.94;;;18.06;23.60
27958;BME280;15295;42.658;23.374;2023-03-13T09:39:27;95068.47;;;18.28;23.50
27958;BME280;15295;42.658;23.374;2023-03-13T09:42:13;95047.38;;;18.34;23.23
27958;BME280;15295;42.658;23.374;2023-03-13T09:45:04;95011.41;;;18.34;22.79
27958;BME280;15295;42.658;23.374;2023-03-13T09:47:57;95031.63;;;18.47;22.77
27958;BME280;15295;42.658;23.374;2023-03-13T09:50:54;95054.19;;;18.74;22.78
27958;BME280;15295;42.658;23.374;2023-03-13T09:53:50;95071.56;;;19.03;22.26
27958;BME280;15295;42.658;23.374;2023-03-13T09:56:27;95019.53;;;18.70;22.48
27958;BME280;15295;42.658;23.374;2023-03-13T09:59:12;95031.59;;;18.76;22.28
27958;BME280;15295;42.658;23.374;2023-03-13T10:01:56;95047.66;;;19.09;22.60
27958;BME280;15295;42.658;23.374;2023-03-13T10:04:40;95002.44;;;19.00;22.05
27958;BME280;15295;42.658;23.374;2023-03-13T10:07:17;95010.66;;;19.16;22.07
27958;BME280;15295;42.658;23.374;2023-03-13T10:09:47;95003.81;;;19.33;21.61
27958;BME280;15295;42.658;23.374;2023-03-13T10:12:26;95028.44;;;19.56;21.54
27958;BME280;15295;42.658;23.374;2023-03-13T10:18:15;95057.47;;;19.39;21.92
27958;BME280;15295;42.658;23.374;2023-03-13T10:21:16;95007.19;;;19.12;22.01
27958;BME280;15295;42.658;23.374;2023-03-13T10:24:00;95031.50;;;19.33;22.17
27958;BME280;15295;42.658;23.374;2023-03-13T10:26:38;95011.31;;;19.20;21.99
27958;BME280;15295;42.658;23.374;2023-03-13T10:32:04;95020.44;;;19.58;21.65
27958;BME280;15295;42.658;23.374;2023-03-13T10:37:23;95009.00;;;19.81;21.47
27958;BME280;15295;42.658;23.374;2023-03-13T10:40:21;95022.97;;;19.90;21.28
27958;BME280;15295;42.658;23.374;2023-03-13T10:43:28;95015.06;;;20.02;21.30
27958;BME280;15295;42.658;23.374;2023-03-13T10:45:55;94955.75;;;19.86;21.12
27958;BME280;15295;42.658;23.374;2023-03-13T10:48:29;94963.84;;;20.15;21.00
27958;BME280;15295;42.658;23.374;2023-03-13T10:51:02;94973.28;;;20.52;21.14
27958;BME280;15295;42.658;23.374;2023-03-13T10:53:39;94942.59;;;20.34;20.56
27958;BME280;15295;42.658;23.374;2023-03-13T10:56:15;94991.28;;;20.47;20.75
27958;BME280;15295;42.658;23.374;2023-03-13T10:58:47;94925.25;;;19.74;21.29
27958;BME280;15295;42.658;23.374;2023-03-13T11:01:26;94985.75;;;20.00;21.23
27958;BME280;15295;42.658;23.374;2023-03-13T11:04:19;94972.91;;;19.94;21.08
27958;BME280;15295;42.658;23.374;2023-03-13T11:07:02;94957.06;;;19.94;21.39
27958;BME280;15295;42.658;23.374;2023-03-13T11:09:56;94952.03;;;20.02;21.27
27958;BME280;15295;42.658;23.374;2023-03-13T11:12:24;94950.34;;;19.70;21.41
27958;BME280;15295;42.658;23.374;2023-03-13T11:15:14;94957.69;;;19.98;21.41
27958;BME280;15295;42.658;23.374;2023-03-13T11:18:23;94901.41;;;19.76;21.30
27958;BME280;15295;42.658;23.374;2023-03-13T11:21:24;94936.00;;;20.19;21.16
27958;BME280;15295;42.658;23.374;2023-03-13T11:27:43;94949.84;;;20.53;20.95
27958;BME280;15295;42.658;23.374;2023-03-13T11:33:45;94936.53;;;20.48;20.67
27958;BME280;15295;42.658;23.374;2023-03-13T11:36:37;94910.72;;;20.38;21.16
27958;BME280;15295;42.658;23.374;2023-03-13T11:39:39;94936.56;;;20.78;20.89
27958;BME280;15295;42.658;23.374;2023-03-13T11:52:34;94900.72;;;21.33;20.12
27958;BME280;15295;42.658;23.374;2023-03-13T11:55:45;94842.31;;;20.84;20.36
27958;BME280;15295;42.658;23.374;2023-03-13T12:01:31;94852.34;;;21.21;20.10
27958;BME280;15295;42.658;23.374;2023-03-13T12:07:33;94880.84;;;21.52;20.17
27958;BME280;15295;42.658;23.374;2023-03-13T12:10:20;94829.72;;;21.01;20.10
27958;BME280;15295;42.658;23.374;2023-03-13T12:16:11;94857.06;;;21.51;19.75
27958;BME280;15295;42.658;23.374;2023-03-13T12:18:49;94829.41;;;21.48;19.80
27958;BME280;15295;42.658;23.374;2023-03-13T12:21:42;94864.50;;;21.73;20.03
27958;BME280;15295;42.658;23.374;2023-03-13T12:27:01;94860.19;;;21.72;19.88
27958;BME280;15295;42.658;23.374;2023-03-13T12:30:02;94837.50;;;21.91;19.13
27958;BME280;15295;42.658;23.374;2023-03-13T12:36:38;94829.25;;;21.61;19.33
27958;BME280;15295;42.658;23.374;2023-03-13T12:42:57;94847.22;;;22.23;19.39
27958;BME280;15295;42.658;23.374;2023-03-13T12:45:32;94816.91;;;21.80;19.20
27958;BME280;15295;42.658;23.374;2023-03-13T12:58:16;94848.78;;;21.97;19.56
27958;BME280;15295;42.658;23.374;2023-03-13T13:01:09;94785.69;;;21.48;19.85
27958;BME280;15295;42.658;23.374;2023-03-13T13:03:49;94849.41;;;22.19;19.47
27958;BME280;15295;42.658;23.374;2023-03-13T13:06:54;94856.78;;;22.22;19.02
27958;BME280;15295;42.658;23.374;2023-03-13T13:09:33;94794.22;;;21.90;19.23
27958;BME280;15295;42.658;23.374;2023-03-13T13:12:22;94817.56;;;21.84;19.34
27958;BME280;15295;42.658;23.374;2023-03-13T13:17:56;94802.06;;;21.65;19.44
27958;BME280;15295;42.658;23.374;2023-03-13T13:23:21;94821.59;;;21.83;19.33
27958;BME280;15295;42.658;23.374;2023-03-13T13:31:56;94782.88;;;21.21;19.68
27958;BME280;15295;42.658;23.374;2023-03-13T13:37:31;94802.84;;;20.98;20.18
27958;BME280;15295;42.658;23.374;2023-03-13T13:40:25;94790.53;;;20.99;20.15
27958;BME280;15295;42.658;23.374;2023-03-13T13:42:57;94790.72;;;21.14;20.24
27958;BME280;15295;42.658;23.374;2023-03-13T13:45:37;94783.63;;;21.22;19.91
27958;BME280;15295;42.658;23.374;2023-03-13T13:48:31;94820.59;;;21.40;19.97
27958;BME280;15295;42.658;23.374;2023-03-13T13:51:30;94791.81;;;21.16;20.43
27958;BME280;15295;42.658;23.374;2023-03-13T13:57:05;94758.84;;;20.88;20.22
27958;BME280;15295;42.658;23.374;2023-03-13T13:59:45;94756.84;;;20.88;20.41
27958;BME280;15295;42.658;23.374;2023-03-13T14:02:26;94776.94;;;21.01;20.42
27958;BME280;15295;42.658;23.374;2023-03-13T14:05:36;94758.41;;;20.89;20.21
27958;BME280;15295;42.658;23.374;2023-03-13T14:08:23;94754.97;;;20.85;20.27
27958;BME280;15295;42.658;23.374;2023-03-13T14:11:25;94819.81;;;21.31;20.22
27958;BME280;15295;42.658;23.374;2023-03-13T14:14:19;94802.53;;;20.96;20.21
27958;BME280;15295;42.658;23.374;2023-03-13T14:16:53;94795.50;;;20.64;20.33
27958;BME280;15295;42.658;23.374;2023-03-13T14:19:39;94784.81;;;20.54;20.78
27958;BME280;15295;42.658;23.374;2023-03-13T14:22:13;94771.97;;;20.47;20.68
27958;BME280;15295;42.658;23.374;2023-03-13T14:25:01;94760.28;;;20.22;20.77
27958;BME280;15295;42.658;23.374;2023-03-13T14:27:50;94744.59;;;20.06;21.00
27958;BME280;15295;42.658;23.374;2023-03-13T14:30:31;94767.16;;;20.17;21.10
27958;BME280;15295;42.658;23.374;2023-03-13T14:35:36;94747.50;;;20.02;20.96
27958;BME280;15295;42.658;23.374;2023-03-13T14:38:16;94765.19;;;19.96;20.63
27958;BME280;15295;42.658;23.374;2023-03-13T14:43:40;94745.28;;;19.45;21.18
27958;BME280;15295;42.658;23.374;2023-03-13T14:46:28;94743.38;;;19.42;21.62
27958;BME280;15295;42.658;23.374;2023-03-13T14:52:23;94740.28;;;19.40;21.67
27958;BME280;15295;42.658;23.374;2023-03-13T14:55:05;94801.94;;;19.66;21.85
27958;BME280;15295;42.658;23.374;2023-03-13T14:57:35;94788.06;;;19.44;21.84
27958;BME280;15295;42.658;23.374;2023-03-13T15:00:28;94802.25;;;19.46;22.02
27958;BME280;15295;42.658;23.374;2023-03-13T15:03:19;94786.19;;;19.41;21.92
27958;BME280;15295;42.658;23.374;2023-03-13T15:08:40;94793.75;;;19.28;21.93